Ana Sayfa
METAR-TAF:

METAR-TAF

Havaalanları :

Murray, Kentucky, Amerika Birleşik Devletleri

Enlem: 36-39-52N, Boylam: 088-22-22W, yükseklik: 176 m

Güncel hava durumu gözlemi

Rapor saat 16:15 UTC de 5 dakika önce yapıldı.
Rüzgar kuzey/kuzeydoğudan 4 kt
Sıcaklık 25°C
Nem 79%
Basınç 1012 hPa
Görüş mesafesi: 16.1 km
2500 ft yükseklikte parçalı çok bulutlu
2900 ft yükseklikte parçalı çok bulutlu
8000 ft yükseklikte çok bulutlu

METAR: KCEY 181615Z AUTO 03004KT 10SM BKN025 BKN029 OVC080 25/21 A2989 RMK A01

Saat: 11:20 (16:20 UTC)


TAF: eksik

4.000'den fazla havaalanı için hava durumu gözlemleri ve tahminleri (METAR ve TAF raporları).

Kullanılabilir istasyonlar harita üzerinde sarı ve kırmızı noktalarla gösterilir.

İstasyonun adını görmek için fareyi noktanın üzerinde gezdirin.

Sonrasında hava gözlem ve tahminlerini görmek için tıklayın.

Haritayı değiştirmek için: yaklaştırmak için siyah artı işaretli yeşil düğmeye ve uzaklaştırmak için de eksi işaretli düğmeye hızla tıklayın; bitişik haritalar için yeşil okları kullanın.


METAR-TAF: